Priv.Wetterstation: Nettetal-Kaldenkirchen
Wetterdaten: aktuell Donnerstag, 07.05.2026 19:00
Datum Zeit TempA.(2,5m) Temp. (1,5m) TempAmin2,5m TempAmax2,5m Temp.(-60cm) Temp. (+5cm) Feu.A (2,5m) FeuA. (1,5m) BlattFeu(1m) BoFe (-60cm) Luftdruck Regen (2,8m) Wind (3,8m) Richtg(3,8m) Richtg(3,8m) Sonnenschein Zeit Regen ET UV (2,8m) Solar (2,8m) Taupunkt Windchill Wböen (3,8m) Empfang
07.05.2026 19:00 15,8 °C 15,6 °C 15,7 °C 15,8 °C 13,3 °C 17,2 °C 60 % 62 % 0 lf 200 cb 1016,1 hPa 0,0 mm 0,0 km/h (0 Bft) SW 230 ° 0 min 0 min 0,000 mm 0,0 UV-I 45 W/m² 8,1 °C 15,8 °C 0,0 km/h (0 Bft) 97 %
07.05.2026 18:50 15,8 °C 15,0 °C 15,8 °C 15,8 °C 13,3 °C 17,8 °C 60 % 62 % 0 lf 200 cb 1016,2 hPa 0,0 mm 0,0 km/h (0 Bft) SW 230 ° 0 min 0 min 0,000 mm 0,0 UV-I 51 W/m² 8,1 °C 15,8 °C 0,0 km/h (0 Bft) 96 %
07.05.2026 18:40 15,8 °C 15,6 °C 15,8 °C 15,9 °C 13,3 °C 18,3 °C 59 % 62 % 0 lf 200 cb 1016,1 hPa 0,0 mm 0,2 km/h (0 Bft) SW 229 ° 0 min 0 min 0,000 mm 0,0 UV-I 56 W/m² 7,8 °C 15,8 °C 2,1 km/h (1 Bft) 95 %
07.05.2026 18:30 15,9 °C 15,0 °C 15,9 °C 16,0 °C 13,3 °C 17,8 °C 58 % 61 % 0 lf 200 cb 1016,1 hPa 0,0 mm 0,2 km/h (0 Bft) SW 225 ° 0 min 0 min 0,000 mm 0,0 UV-I 63 W/m² 7,6 °C 15,9 °C 2,1 km/h (1 Bft) 93 %
07.05.2026 18:20 16,0 °C 15,6 °C 16,0 °C 16,1 °C 13,3 °C 18,9 °C 56 % 61 % 0 lf 200 cb 1016,1 hPa 0,0 mm 0,0 km/h (0 Bft) SW 225 ° 0 min 0 min 0,000 mm 0,0 UV-I 69 W/m² 7,2 °C 16,0 °C 2,1 km/h (1 Bft) 93 %
07.05.2026 18:10 16,1 °C 15,6 °C 16,1 °C 16,1 °C 13,3 °C 18,9 °C 56 % 59 % 0 lf 200 cb 1016,2 hPa 0,0 mm 0,1 km/h (0 Bft) SW 225 ° 0 min 0 min 0,051 mm 0,0 UV-I 71 W/m² 7,3 °C 16,1 °C 2,1 km/h (1 Bft) 97 %
07.05.2026 18:00 16,1 °C 15,6 °C 15,9 °C 16,1 °C 13,3 °C 19,4 °C 56 % 58 % 0 lf 200 cb 1016,1 hPa 0,0 mm 0,0 km/h (0 Bft) SW 222 ° 0 min 0 min 0,000 mm 0,0 UV-I 75 W/m² 7,3 °C 16,1 °C 2,1 km/h (1 Bft) 97 %
07.05.2026 17:50 15,9 °C 15,6 °C 15,8 °C 15,9 °C 13,3 °C 19,4 °C 56 % 59 % 0 lf 200 cb 1016,0 hPa 0,0 mm 0,2 km/h (0 Bft) SW 222 ° 0 min 0 min 0,000 mm 0,0 UV-I 77 W/m² 7,1 °C 15,9 °C 2,1 km/h (1 Bft) 96 %
07.05.2026 17:40 15,8 °C 15,0 °C 15,8 °C 16,0 °C 13,3 °C 18,9 °C 56 % 58 % 0 lf 200 cb 1016,0 hPa 0,0 mm 0,2 km/h (0 Bft) SW 218 ° 0 min 0 min 0,000 mm 0,0 UV-I 77 W/m² 7,0 °C 15,8 °C 4,1 km/h (1 Bft) 97 %
07.05.2026 17:30 15,9 °C 15,0 °C 15,8 °C 15,9 °C 13,3 °C 19,4 °C 55 % 54 % 0 lf 200 cb 1016,1 hPa 0,0 mm 0,1 km/h (0 Bft) SW 223 ° 0 min 0 min 0,000 mm 0,0 UV-I 80 W/m² 6,9 °C 15,9 °C 2,1 km/h (1 Bft) 96 %
07.05.2026 17:20 15,9 °C 15,6 °C 15,8 °C 15,9 °C 13,3 °C 20,0 °C 55 % 57 % 0 lf 200 cb 1016,1 hPa 0,0 mm 0,1 km/h (0 Bft) SW 223 ° 0 min 0 min 0,000 mm 0,0 UV-I 79 W/m² 6,9 °C 15,9 °C 2,1 km/h (1 Bft) 97 %
07.05.2026 17:10 15,9 °C 15,0 °C 15,8 °C 15,9 °C 13,3 °C 18,9 °C 54 % 58 % 0 lf 200 cb 1016,0 hPa 0,0 mm 0,2 km/h (0 Bft) SW 223 ° 0 min 0 min 0,000 mm 0,0 UV-I 75 W/m² 6,6 °C 15,9 °C 2,1 km/h (1 Bft) 96 %
07.05.2026 17:00 15,8 °C 15,0 °C 15,8 °C 15,9 °C 13,3 °C 18,3 °C 53 % 57 % 0 lf 200 cb 1016,0 hPa 0,0 mm 0,3 km/h (0 Bft) SW 223 ° 0 min 0 min 0,076 mm 0,0 UV-I 70 W/m² 6,2 °C 15,8 °C 4,1 km/h (1 Bft) 96 %
07.05.2026 16:50 15,8 °C 15,0 °C 15,8 °C 16,0 °C 13,3 °C 18,9 °C 56 % 58 % 0 lf 200 cb 1015,9 hPa 0,0 mm 0,4 km/h (0 Bft) SW 219 ° 0 min 0 min 0,000 mm 0,0 UV-I 82 W/m² 7,0 °C 15,8 °C 4,1 km/h (1 Bft) 95 %
07.05.2026 16:40 16,0 °C 15,6 °C 16,0 °C 16,4 °C 13,3 °C 20,0 °C 54 % 58 % 0 lf 200 cb 1015,9 hPa 0,0 mm 1,1 km/h (1 Bft) S-SO 153 ° 0 min 0 min 0,000 mm 0,4 UV-I 101 W/m² 6,7 °C 16,0 °C 6,2 km/h (2 Bft) 96 %
07.05.2026 16:30 16,4 °C 15,6 °C 16,3 °C 16,4 °C 13,3 °C 21,7 °C 56 % 61 % 0 lf 200 cb 1015,9 hPa 0,0 mm 0,0 km/h (0 Bft) W-SW 246 ° 0 min 0 min 0,000 mm 0,6 UV-I 115 W/m² 7,6 °C 16,4 °C 0,0 km/h (0 Bft) 96 %
07.05.2026 16:20 16,3 °C 15,6 °C 16,1 °C 16,4 °C 13,3 °C 21,7 °C 53 % 58 % 0 lf 200 cb 1016,0 hPa 0,0 mm 0,0 km/h (0 Bft) W-SW 246 ° 0 min 0 min 0,000 mm 0,7 UV-I 129 W/m² 6,7 °C 16,3 °C 2,1 km/h (1 Bft) 96 %
07.05.2026 16:10 16,1 °C 15,6 °C 15,9 °C 16,1 °C 13,3 °C 22,2 °C 52 % 56 % 0 lf 200 cb 1016,0 hPa 0,0 mm 0,7 km/h (0 Bft) W-SW 246 ° 0 min 0 min 0,000 mm 0,7 UV-I 135 W/m² 6,2 °C 16,1 °C 4,1 km/h (1 Bft) 94 %
07.05.2026 16:00 16,1 °C 15,6 °C 16,1 °C 16,3 °C 13,3 °C 21,7 °C 50 % 55 % 0 lf 200 cb 1016,1 hPa 0,0 mm 0,7 km/h (0 Bft) W-SW 246 ° 0 min 0 min 0,102 mm 0,7 UV-I 138 W/m² 5,7 °C 16,1 °C 4,1 km/h (1 Bft) 95 %
07.05.2026 15:50 16,2 °C 15,6 °C 16,1 °C 16,3 °C 13,3 °C 22,2 °C 51 % 53 % 0 lf 200 cb 1016,1 hPa 0,0 mm 0,6 km/h (0 Bft) S-SO 155 ° 0 min 0 min 0,000 mm 0,8 UV-I 142 W/m² 6,1 °C 16,2 °C 6,2 km/h (2 Bft) 98 %
07.05.2026 15:40 16,3 °C 15,6 °C 16,2 °C 16,3 °C 13,3 °C 22,8 °C 54 % 56 % 0 lf 200 cb 1016,2 hPa 0,0 mm 0,3 km/h (0 Bft) S-SO 157 ° 0 min 0 min 0,000 mm 0,8 UV-I 147 W/m² 7,0 °C 16,3 °C 6,2 km/h (2 Bft) 98 %
07.05.2026 15:30 16,2 °C 15,6 °C 15,8 °C 16,2 °C 13,3 °C 22,2 °C 55 % 56 % 0 lf 200 cb 1016,2 hPa 0,0 mm 0,3 km/h (0 Bft) W 267 ° 0 min 0 min 0,000 mm 0,7 UV-I 130 W/m² 7,2 °C 16,2 °C 4,1 km/h (1 Bft) 99 %
07.05.2026 15:20 15,8 °C 15,0 °C 15,7 °C 16,1 °C 13,3 °C 20,6 °C 54 % 58 % 0 lf 200 cb 1016,2 hPa 0,0 mm 0,3 km/h (0 Bft) W 267 ° 0 min 0 min 0,000 mm 0,6 UV-I 110 W/m² 6,5 °C 15,8 °C 2,1 km/h (1 Bft) 99 %
07.05.2026 15:10 15,7 °C 15,0 °C 15,7 °C 16,1 °C 13,3 °C 19,4 °C 52 % 55 % 0 lf 200 cb 1016,2 hPa 0,0 mm 0,0 km/h (0 Bft) O-SO 112 ° 0 min 0 min 0,000 mm 0,5 UV-I 97 W/m² 5,9 °C 15,7 °C 4,1 km/h (1 Bft) 100 %
07.05.2026 15:00 16,1 °C 15,6 °C 16,1 °C 16,2 °C 13,3 °C 20,6 °C 54 % 57 % 0 lf 200 cb 1016,1 hPa 0,0 mm 0,0 km/h (0 Bft) S 180 ° 0 min 0 min 0,127 mm 0,5 UV-I 86 W/m² 6,8 °C 16,1 °C 4,1 km/h (1 Bft) 97 %
07.05.2026 14:50 16,2 °C 16,1 °C 16,1 °C 16,2 °C 13,3 °C 23,9 °C 52 % 54 % 0 lf 200 cb 1016,1 hPa 0,0 mm 1,5 km/h (1 Bft) SO 146 ° 0 min 0 min 0,000 mm 0,9 UV-I 109 W/m² 6,3 °C 16,2 °C 8,3 km/h (2 Bft) 96 %
07.05.2026 14:40 16,2 °C 17,2 °C 16,2 °C 16,6 °C 13,3 °C 28,3 °C 53 % 51 % 0 lf 200 cb 1015,9 hPa 0,0 mm 0,5 km/h (0 Bft) W-NW 282 ° 0 min 0 min 0,000 mm 1,0 UV-I 148 W/m² 6,6 °C 16,2 °C 6,2 km/h (2 Bft) 98 %
07.05.2026 14:30 16,3 °C 17,2 °C 16,2 °C 16,3 °C 13,3 °C 28,3 °C 53 % 58 % 0 lf 200 cb 1016,0 hPa 0,0 mm 0,6 km/h (0 Bft) W-NW 286 ° 0 min 0 min 0,000 mm 1,0 UV-I 173 W/m² 6,7 °C 16,3 °C 4,1 km/h (1 Bft) 98 %
07.05.2026 14:20 16,3 °C 16,7 °C 16,3 °C 16,9 °C 13,3 °C 26,7 °C 52 % 50 % 0 lf 200 cb 1016,0 hPa 0,0 mm 2,6 km/h (1 Bft) O 99 ° 0 min 0 min 0,000 mm 1,5 UV-I 149 W/m² 6,4 °C 16,3 °C 12,4 km/h (3 Bft) 99 %
07.05.2026 14:10 16,9 °C 18,3 °C 16,9 °C 17,3 °C 13,3 °C 34,4 °C 47 % 46 % 0 lf 200 cb 1016,0 hPa 0,0 mm 2,7 km/h (1 Bft) S-SW 208 ° 10 min 0 min 0,000 mm 2,4 UV-I 497 W/m² 5,5 °C 16,9 °C 12,4 km/h (3 Bft) 99 %
07.05.2026 14:00 17,2 °C 17,8 °C 17,0 °C 17,2 °C 13,3 °C 35,0 °C 52 % 59 % 0 lf 200 cb 1016,1 hPa 0,0 mm 0,6 km/h (0 Bft) S-SW 206 ° 0 min 0 min 0,482 mm 1,9 UV-I 384 W/m² 7,3 °C 17,2 °C 4,1 km/h (1 Bft) 99 %
07.05.2026 13:50 17,2 °C 17,8 °C 17,1 °C 17,3 °C 13,3 °C 35,0 °C 48 % 50 % 0 lf 200 cb 1015,9 hPa 0,0 mm 1,4 km/h (1 Bft) S-SO 159 ° 10 min 0 min 0,000 mm 3,0 UV-I 711 W/m² 6,1 °C 17,2 °C 6,2 km/h (2 Bft) 100 %
07.05.2026 13:40 17,2 °C 17,2 °C 16,6 °C 17,2 °C 13,3 °C 33,9 °C 45 % 52 % 0 lf 200 cb 1016,0 hPa 0,0 mm 1,4 km/h (1 Bft) W 270 ° 10 min 0 min 0,000 mm 2,9 UV-I 811 W/m² 5,2 °C 17,2 °C 6,2 km/h (2 Bft) 98 %
07.05.2026 13:30 16,8 °C 16,7 °C 16,8 °C 17,6 °C 13,3 °C 33,9 °C 48 % 53 % 0 lf 200 cb 1016,1 hPa 0,0 mm 2,5 km/h (1 Bft) W 269 ° 10 min 0 min 0,000 mm 3,0 UV-I 830 W/m² 5,7 °C 16,8 °C 12,4 km/h (3 Bft) 100 %
07.05.2026 13:20 17,6 °C 17,2 °C 17,0 °C 17,6 °C 13,3 °C 34,4 °C 49 % 51 % 0 lf 200 cb 1016,1 hPa 0,0 mm 1,6 km/h (1 Bft) S 171 ° 10 min 0 min 0,000 mm 3,0 UV-I 823 W/m² 6,8 °C 17,6 °C 10,3 km/h (2 Bft) 97 %
07.05.2026 13:10 17,0 °C 16,1 °C 16,7 °C 17,4 °C 13,3 °C 32,8 °C 51 % 57 % 0 lf 200 cb 1016,1 hPa 0,0 mm 0,9 km/h (0 Bft) W-SW 242 ° 10 min 0 min 0,000 mm 2,9 UV-I 808 W/m² 6,8 °C 17,0 °C 4,1 km/h (1 Bft) 97 %
07.05.2026 13:00 17,4 °C 16,1 °C 16,8 °C 17,6 °C 13,3 °C 32,2 °C 51 % 61 % 0 lf 200 cb 1016,1 hPa 0,0 mm 0,5 km/h (0 Bft) W-SW 240 ° 10 min 0 min 0,432 mm 2,6 UV-I 693 W/m² 7,2 °C 17,4 °C 4,1 km/h (1 Bft) 95 %
07.05.2026 12:50 16,8 °C 16,1 °C 16,3 °C 17,3 °C 13,3 °C 32,8 °C 52 % 54 % 0 lf 200 cb 1016,1 hPa 0,2 mm 1,4 km/h (1 Bft) SO 144 ° 10 min 10 min 0,000 mm 2,8 UV-I 784 W/m² 6,9 °C 16,8 °C 6,2 km/h (2 Bft) 98 %
07.05.2026 12:40 16,3 °C 16,1 °C 16,1 °C 16,3 °C 13,3 °C 29,4 °C 58 % 62 % 0 lf 200 cb 1016,1 hPa 0,0 mm 2,4 km/h (1 Bft) S-SO 157 ° 10 min 0 min 0,000 mm 2,5 UV-I 561 W/m² 8,0 °C 16,3 °C 10,3 km/h (2 Bft) 99 %
07.05.2026 12:30 16,1 °C 15,0 °C 15,5 °C 16,1 °C 13,3 °C 28,3 °C 57 % 63 % 0 lf 200 cb 1016,2 hPa 0,0 mm 1,2 km/h (1 Bft) SW 219 ° 10 min 0 min 0,000 mm 2,2 UV-I 638 W/m² 7,6 °C 16,1 °C 10,3 km/h (2 Bft) 100 %
07.05.2026 12:20 15,5 °C 15,6 °C 15,2 °C 15,9 °C 13,3 °C 32,8 °C 62 % 62 % 0 lf 200 cb 1016,0 hPa 0,0 mm 2,9 km/h (1 Bft) W 275 ° 10 min 0 min 0,000 mm 2,5 UV-I 826 W/m² 8,3 °C 15,5 °C 12,4 km/h (3 Bft) 99 %
07.05.2026 12:10 15,8 °C 15,0 °C 15,7 °C 16,3 °C 13,3 °C 31,7 °C 61 % 67 % 0 lf 200 cb 1016,0 hPa 0,0 mm 1,6 km/h (1 Bft) W-NW 283 ° 10 min 0 min 0,000 mm 2,6 UV-I 815 W/m² 8,3 °C 15,8 °C 8,3 km/h (2 Bft) 98 %
07.05.2026 12:00 16,3 °C 14,4 °C 15,8 °C 16,4 °C 13,3 °C 29,4 °C 64 % 67 % 0 lf 200 cb 1016,0 hPa 0,0 mm 0,7 km/h (0 Bft) O-SO 105 ° 10 min 0 min 0,432 mm 1,8 UV-I 568 W/m² 9,5 °C 16,3 °C 6,2 km/h (2 Bft) 100 %
07.05.2026 11:50 16,3 °C 14,4 °C 15,8 °C 16,5 °C 13,3 °C 32,8 °C 60 % 68 % 0 lf 200 cb 1016,1 hPa 0,0 mm 0,8 km/h (0 Bft) W 276 ° 10 min 0 min 0,000 mm 2,4 UV-I 796 W/m² 8,5 °C 16,3 °C 6,2 km/h (2 Bft) 100 %
07.05.2026 11:40 15,8 °C 14,4 °C 15,7 °C 16,2 °C 13,3 °C 33,9 °C 64 % 67 % 0 lf 200 cb 1015,9 hPa 0,0 mm 1,1 km/h (1 Bft) W 267 ° 10 min 0 min 0,000 mm 2,4 UV-I 797 W/m² 9,0 °C 15,8 °C 6,2 km/h (2 Bft) 99 %
07.05.2026 11:30 16,2 °C 13,9 °C 15,3 °C 16,2 °C 13,3 °C 33,9 °C 66 % 73 % 0 lf 200 cb 1015,9 hPa 0,0 mm 0,8 km/h (0 Bft) W 265 ° 10 min 0 min 0,000 mm 2,4 UV-I 764 W/m² 9,8 °C 16,2 °C 8,3 km/h (2 Bft) 100 %
07.05.2026 11:20 15,3 °C 13,9 °C 15,2 °C 15,4 °C 13,3 °C 32,8 °C 70 % 75 % 0 lf 200 cb 1015,9 hPa 0,0 mm 1,5 km/h (1 Bft) SO 146 ° 10 min 0 min 0,000 mm 2,3 UV-I 754 W/m² 9,9 °C 15,3 °C 8,3 km/h (2 Bft) 98 %
07.05.2026 11:10 15,3 °C 13,3 °C 14,8 °C 15,4 °C 13,3 °C 32,2 °C 70 % 76 % 0 lf 200 cb 1015,9 hPa 0,0 mm 0,9 km/h (0 Bft) W 263 ° 10 min 0 min 0,000 mm 2,1 UV-I 725 W/m² 9,9 °C 15,3 °C 6,2 km/h (2 Bft) 95 %
07.05.2026 11:00 15,1 °C 13,3 °C 15,0 °C 15,3 °C 13,3 °C 32,2 °C 70 % 77 % 0 lf 200 cb 1015,8 hPa 0,0 mm 0,9 km/h (0 Bft) W 263 ° 10 min 0 min 0,356 mm 2,0 UV-I 694 W/m² 9,7 °C 15,1 °C 6,2 km/h (2 Bft) 97 %
07.05.2026 10:50 15,0 °C 12,8 °C 14,6 °C 15,0 °C 13,3 °C 31,7 °C 74 % 78 % 0 lf 200 cb 1015,7 hPa 0,0 mm 0,7 km/h (0 Bft) W 263 ° 10 min 0 min 0,000 mm 1,9 UV-I 673 W/m² 10,4 °C 15,0 °C 6,2 km/h (2 Bft) 96 %
07.05.2026 10:40 14,8 °C 12,2 °C 13,4 °C 14,8 °C 13,3 °C 31,1 °C 74 % 80 % 0 lf 200 cb 1015,8 hPa 0,0 mm 0,4 km/h (0 Bft) W-SW 248 ° 10 min 0 min 0,000 mm 1,7 UV-I 644 W/m² 10,2 °C 14,8 °C 6,2 km/h (2 Bft) 98 %
07.05.2026 10:30 14,0 °C 11,7 °C 13,4 °C 14,2 °C 13,3 °C 29,4 °C 74 % 81 % 0 lf 200 cb 1015,9 hPa 0,0 mm 0,9 km/h (0 Bft) W-SW 248 ° 10 min 0 min 0,000 mm 1,6 UV-I 626 W/m² 9,4 °C 14,0 °C 4,1 km/h (1 Bft) 99 %
07.05.2026 10:20 13,7 °C 11,7 °C 13,3 °C 13,7 °C 13,3 °C 29,4 °C 78 % 81 % 0 lf 200 cb 1015,7 hPa 0,0 mm 0,1 km/h (0 Bft) W-SW 250 ° 10 min 0 min 0,000 mm 1,4 UV-I 605 W/m² 9,9 °C 13,7 °C 2,1 km/h (1 Bft) 99 %
07.05.2026 10:10 13,4 °C 11,1 °C 12,6 °C 13,4 °C 13,3 °C 28,3 °C 82 % 82 % 0 lf 200 cb 1015,7 hPa 0,0 mm 0,4 km/h (0 Bft) W-SW 250 ° 10 min 0 min 0,000 mm 1,3 UV-I 579 W/m² 10,4 °C 13,4 °C 4,1 km/h (1 Bft) 100 %
07.05.2026 10:00 12,8 °C 10,6 °C 11,6 °C 12,8 °C 13,3 °C 28,3 °C 82 % 84 % 0 lf 200 cb 1015,7 hPa 0,0 mm 0,0 km/h (0 Bft) W-SW 250 ° 10 min 0 min 0,203 mm 1,2 UV-I 562 W/m² 9,8 °C 12,8 °C 0,0 km/h (0 Bft) 100 %
07.05.2026 09:50 11,6 °C 10,6 °C 10,7 °C 11,6 °C 13,3 °C 26,7 °C 87 % 84 % 0 lf 200 cb 1015,6 hPa 0,0 mm 0,6 km/h (0 Bft) W-SW 250 ° 10 min 0 min 0,000 mm 1,0 UV-I 533 W/m² 9,5 °C 11,6 °C 4,1 km/h (1 Bft) 100 %
07.05.2026 09:40 10,7 °C 10,0 °C 10,2 °C 10,7 °C 13,3 °C 23,3 °C 91 % 86 % 0 lf 200 cb 1015,5 hPa 0,0 mm 0,3 km/h (0 Bft) W-SW 254 ° 10 min 0 min 0,000 mm 0,9 UV-I 484 W/m² 9,3 °C 10,7 °C 2,1 km/h (1 Bft) 100 %
07.05.2026 09:30 10,2 °C 9,4 °C 9,9 °C 10,2 °C 13,3 °C 21,1 °C 93 % 87 % 0 lf 200 cb 1015,4 hPa 0,0 mm 0,5 km/h (0 Bft) W-SW 254 ° 10 min 0 min 0,000 mm 0,7 UV-I 333 W/m² 9,1 °C 10,2 °C 4,1 km/h (1 Bft) 99 %
07.05.2026 09:20 9,9 °C 8,9 °C 9,4 °C 9,9 °C 13,3 °C 18,3 °C 94 % 87 % 0 lf 200 cb 1015,3 hPa 0,0 mm 0,0 km/h (0 Bft) W-SW 254 ° 10 min 0 min 0,000 mm 0,6 UV-I 275 W/m² 9,0 °C 9,9 °C 0,0 km/h (0 Bft) 100 %
07.05.2026 09:10 9,4 °C 8,9 °C 8,9 °C 9,4 °C 13,3 °C 17,2 °C 94 % 88 % 0 lf 200 cb 1015,3 hPa 0,0 mm 0,0 km/h (0 Bft) W-SW 254 ° 10 min 0 min 0,000 mm 0,5 UV-I 262 W/m² 8,5 °C 9,4 °C 0,0 km/h (0 Bft) 100 %
07.05.2026 09:00 8,9 °C 8,9 °C 8,7 °C 8,9 °C 13,3 °C 16,1 °C 94 % 90 % 0 lf 200 cb 1015,2 hPa 0,0 mm 0,0 km/h (0 Bft) W-SW 254 ° 0 min 0 min 0,051 mm 0,2 UV-I 217 W/m² 8,0 °C 8,9 °C 0,0 km/h (0 Bft) 100 %
07.05.2026 08:50 8,7 °C 8,3 °C 8,5 °C 8,7 °C 13,3 °C 13,3 °C 94 % 90 % 0 lf 200 cb 1015,2 hPa 0,0 mm 0,0 km/h (0 Bft) W-SW 254 ° 0 min 0 min 0,000 mm 0,0 UV-I 143 W/m² 7,8 °C 8,7 °C 0,0 km/h (0 Bft) 100 %
07.05.2026 08:40 8,5 °C 8,3 °C 8,3 °C 8,5 °C 13,3 °C 12,8 °C 94 % 90 % 0 lf 200 cb 1015,2 hPa 0,0 mm 0,0 km/h (0 Bft) W-SW 254 ° 0 min 0 min 0,000 mm 0,0 UV-I 109 W/m² 7,6 °C 8,5 °C 0,0 km/h (0 Bft) 98 %
07.05.2026 08:30 8,3 °C 8,3 °C 8,2 °C 8,3 °C 13,3 °C 12,2 °C 94 % 90 % 0 lf 200 cb 1015,2 hPa 0,0 mm 0,0 km/h (0 Bft) W-SW 254 ° 0 min 0 min 0,000 mm 0,0 UV-I 104 W/m² 7,4 °C 8,3 °C 0,0 km/h (0 Bft) 98 %
07.05.2026 08:20 8,2 °C 7,8 °C 8,1 °C 8,2 °C 13,3 °C 11,7 °C 94 % 90 % 0 lf 200 cb 1015,0 hPa 0,0 mm 0,0 km/h (0 Bft) W-SW 254 ° 0 min 0 min 0,000 mm 0,0 UV-I 87 W/m² 7,3 °C 8,2 °C 0,0 km/h (0 Bft) 97 %
07.05.2026 08:10 8,1 °C 7,8 °C 7,9 °C 8,1 °C 13,3 °C 10,6 °C 94 % 90 % 0 lf 200 cb 1015,0 hPa 0,0 mm 0,0 km/h (0 Bft) W-SW 254 ° 0 min 0 min 0,000 mm 0,0 UV-I 72 W/m² 7,2 °C 8,1 °C 0,0 km/h (0 Bft) 99 %
07.05.2026 08:00 7,9 °C 7,8 °C 7,9 °C 7,9 °C 13,3 °C 10,0 °C 94 % 90 % 0 lf 200 cb 1015,0 hPa 0,0 mm 0,0 km/h (0 Bft) W-SW 254 ° 0 min 0 min 0,025 mm 0,0 UV-I 59 W/m² 7,0 °C 7,9 °C 0,0 km/h (0 Bft) 100 %
07.05.2026 07:50 7,9 °C 7,8 °C 7,9 °C 7,9 °C 13,3 °C 9,4 °C 94 % 90 % 0 lf 200 cb 1014,9 hPa 0,0 mm 0,0 km/h (0 Bft) W-SW 254 ° 0 min 0 min 0,000 mm 0,0 UV-I 46 W/m² 7,0 °C 7,9 °C 0,0 km/h (0 Bft) 99 %
07.05.2026 07:40 7,9 °C 7,8 °C 7,9 °C 7,9 °C 13,3 °C 8,9 °C 94 % 90 % 0 lf 200 cb 1014,8 hPa 0,0 mm 0,4 km/h (0 Bft) W-SW 254 ° 0 min 0 min 0,000 mm 0,0 UV-I 33 W/m² 7,0 °C 7,9 °C 4,1 km/h (1 Bft) 100 %
07.05.2026 07:30 7,9 °C 7,8 °C 7,9 °C 7,9 °C 13,3 °C 8,3 °C 94 % 90 % 0 lf 200 cb 1014,7 hPa 0,0 mm 1,1 km/h (1 Bft) W-SW 254 ° 0 min 0 min 0,000 mm 0,0 UV-I 27 W/m² 7,0 °C 7,9 °C 4,1 km/h (1 Bft) 99 %
07.05.2026 07:20 7,9 °C 7,2 °C 7,9 °C 7,9 °C 13,3 °C 8,3 °C 94 % 90 % 0 lf 200 cb 1014,7 hPa 0,0 mm 0,5 km/h (0 Bft) W-SW 254 ° 0 min 0 min 0,000 mm 0,0 UV-I 20 W/m² 7,0 °C 7,9 °C 4,1 km/h (1 Bft) 100 %
07.05.2026 07:10 7,9 °C 7,2 °C 7,9 °C 7,9 °C 13,3 °C 7,8 °C 94 % 90 % 0 lf 200 cb 1014,6 hPa 0,0 mm 0,1 km/h (0 Bft) W-SW 240 ° 0 min 0 min 0,000 mm 0,0 UV-I 17 W/m² 7,0 °C 7,9 °C 2,1 km/h (1 Bft) 99 %
07.05.2026 07:00 7,9 °C 7,8 °C 7,9 °C 8,0 °C 13,3 °C 7,8 °C 94 % 90 % 0 lf 200 cb 1014,4 hPa 0,0 mm 0,3 km/h (0 Bft) W-SW 240 ° 0 min 0 min 0,000 mm 0,0 UV-I 13 W/m² 7,0 °C 7,9 °C 2,1 km/h (1 Bft) 98 %
07.05.2026 06:50 8,0 °C 7,8 °C 8,0 °C 8,1 °C 13,3 °C 7,8 °C 94 % 90 % 0 lf 200 cb 1014,2 hPa 0,2 mm 0,0 km/h (0 Bft) W-SW 240 ° 0 min 10 min 0,000 mm 0,0 UV-I 12 W/m² 7,1 °C 8,0 °C 0,0 km/h (0 Bft) 98 %
07.05.2026 06:40 8,1 °C 7,8 °C 8,1 °C 8,1 °C 13,3 °C 7,8 °C 94 % 90 % 0 lf 200 cb 1014,2 hPa 0,0 mm 0,0 km/h (0 Bft) W-SW 239 ° 0 min 0 min 0,000 mm 0,0 UV-I 8 W/m² 7,2 °C 8,1 °C 0,0 km/h (0 Bft) 97 %
07.05.2026 06:30 8,1 °C 7,8 °C 8,1 °C 8,2 °C 13,3 °C 7,8 °C 94 % 90 % 0 lf 200 cb 1014,0 hPa 0,0 mm 0,0 km/h (0 Bft) W-SW 239 ° 0 min 0 min 0,000 mm 0,0 UV-I 4 W/m² 7,2 °C 8,1 °C 0,0 km/h (0 Bft) 96 %
07.05.2026 06:20 8,2 °C 7,8 °C 8,2 °C 8,2 °C 13,3 °C 7,8 °C 94 % 90 % 0 lf 200 cb 1013,9 hPa 0,0 mm 0,0 km/h (0 Bft) W-SW 239 ° 0 min 0 min 0,000 mm 0,0 UV-I 0 W/m² 7,3 °C 8,2 °C 0,0 km/h (0 Bft) 98 %
07.05.2026 06:10 8,2 °C 7,8 °C 8,2 °C 8,3 °C 13,3 °C 7,8 °C 94 % 90 % 0 lf 200 cb 1014,0 hPa 0,0 mm 0,0 km/h (0 Bft) W-SW 239 ° 0 min 0 min 0,000 mm 0,0 UV-I 0 W/m² 7,3 °C 8,2 °C 0,0 km/h (0 Bft) 96 %
07.05.2026 06:00 8,3 °C 7,8 °C 8,3 °C 8,4 °C 13,3 °C 7,8 °C 94 % 90 % 1 lf 200 cb 1013,8 hPa 0,0 mm 0,0 km/h (0 Bft) W-SW 239 ° 0 min 0 min 0,000 mm 0,0 UV-I 0 W/m² 7,4 °C 8,3 °C 0,0 km/h (0 Bft) 97 %
07.05.2026 05:50 8,4 °C 7,8 °C 8,4 °C 8,5 °C 13,3 °C 7,8 °C 94 % 90 % 3 lf 200 cb 1013,7 hPa 0,0 mm 0,0 km/h (0 Bft) W-SW 239 ° 0 min 0 min 0,000 mm 0,0 UV-I 0 W/m² 7,5 °C 8,4 °C 0,0 km/h (0 Bft) 97 %
07.05.2026 05:40 8,5 °C 7,8 °C 8,5 °C 8,6 °C 13,3 °C 7,8 °C 94 % 90 % 3 lf 200 cb 1013,7 hPa 0,0 mm 0,0 km/h (0 Bft) W-SW 239 ° 0 min 0 min 0,000 mm 0,0 UV-I 0 W/m² 7,6 °C 8,5 °C 0,0 km/h (0 Bft) 98 %
07.05.2026 05:30 8,6 °C 8,3 °C 8,6 °C 8,7 °C 13,3 °C 7,8 °C 94 % 90 % 4 lf 200 cb 1013,7 hPa 0,0 mm 0,0 km/h (0 Bft) W-SW 239 ° 0 min 0 min 0,000 mm 0,0 UV-I 0 W/m² 7,7 °C 8,6 °C 0,0 km/h (0 Bft) 98 %
07.05.2026 05:20 8,7 °C 8,3 °C 8,7 °C 8,7 °C 13,3 °C 7,8 °C 95 % 91 % 6 lf 200 cb 1013,7 hPa 0,0 mm 0,0 km/h (0 Bft) W-SW 239 ° 0 min 0 min 0,000 mm 0,0 UV-I 0 W/m² 7,9 °C 8,7 °C 0,0 km/h (0 Bft) 97 %
07.05.2026 05:10 8,7 °C 8,3 °C 8,7 °C 8,7 °C 13,3 °C 7,8 °C 95 % 91 % 8 lf 200 cb 1013,5 hPa 0,0 mm 0,0 km/h (0 Bft) W-SW 239 ° 0 min 0 min 0,000 mm 0,0 UV-I 0 W/m² 7,9 °C 8,7 °C 0,0 km/h (0 Bft) 97 %
07.05.2026 05:00 8,7 °C 8,3 °C 8,7 °C 8,7 °C 13,3 °C 7,8 °C 95 % 91 % 9 lf 200 cb 1013,3 hPa 0,0 mm 0,0 km/h (0 Bft) W-SW 239 ° 0 min 0 min 0,000 mm 0,0 UV-I 0 W/m² 7,9 °C 8,7 °C 0,0 km/h (0 Bft) 95 %
07.05.2026 04:50 8,7 °C 8,3 °C 8,6 °C 8,7 °C 13,3 °C 7,8 °C 95 % 91 % 10 lf 200 cb 1013,3 hPa 0,0 mm 0,0 km/h (0 Bft) W-SW 239 ° 0 min 0 min 0,000 mm 0,0 UV-I 0 W/m² 7,9 °C 8,7 °C 0,0 km/h (0 Bft) 96 %
07.05.2026 04:40 8,7 °C 8,3 °C 8,6 °C 8,7 °C 13,3 °C 7,8 °C 95 % 91 % 10 lf 200 cb 1013,4 hPa 0,0 mm 0,0 km/h (0 Bft) W-SW 239 ° 0 min 0 min 0,000 mm 0,0 UV-I 0 W/m² 7,9 °C 8,7 °C 0,0 km/h (0 Bft) 95 %
07.05.2026 04:30 8,6 °C 8,3 °C 8,6 °C 8,7 °C 13,3 °C 7,8 °C 95 % 90 % 11 lf 200 cb 1013,3 hPa 0,0 mm 0,0 km/h (0 Bft) W-SW 239 ° 0 min 0 min 0,000 mm 0,0 UV-I 0 W/m² 7,8 °C 8,6 °C 0,0 km/h (0 Bft) 97 %
07.05.2026 04:20 8,6 °C 8,3 °C 8,6 °C 8,7 °C 13,3 °C 7,8 °C 95 % 90 % 11 lf 200 cb 1013,3 hPa 0,0 mm 0,0 km/h (0 Bft) W-SW 239 ° 0 min 0 min 0,000 mm 0,0 UV-I 0 W/m² 7,8 °C 8,6 °C 0,0 km/h (0 Bft) 98 %
07.05.2026 04:10 8,6 °C 8,3 °C 8,6 °C 8,7 °C 13,3 °C 7,8 °C 95 % 90 % 12 lf 200 cb 1013,2 hPa 0,0 mm 0,0 km/h (0 Bft) W-SW 239 ° 0 min 0 min 0,000 mm 0,0 UV-I 0 W/m² 7,8 °C 8,6 °C 0,0 km/h (0 Bft) 98 %
07.05.2026 04:00 8,6 °C 8,3 °C 8,6 °C 8,7 °C 13,3 °C 7,8 °C 95 % 90 % 12 lf 200 cb 1013,1 hPa 0,0 mm 0,0 km/h (0 Bft) W-SW 239 ° 0 min 0 min 0,000 mm 0,0 UV-I 0 W/m² 7,8 °C 8,6 °C 0,0 km/h (0 Bft) 99 %
07.05.2026 03:50 8,6 °C 7,8 °C 8,6 °C 8,7 °C 13,3 °C 7,8 °C 95 % 90 % 13 lf 200 cb 1013,0 hPa 0,0 mm 0,0 km/h (0 Bft) W-SW 239 ° 0 min 0 min 0,000 mm 0,0 UV-I 0 W/m² 7,8 °C 8,6 °C 0,0 km/h (0 Bft) 100 %
07.05.2026 03:40 8,6 °C 7,8 °C 8,6 °C 8,7 °C 13,3 °C 7,8 °C 95 % 90 % 13 lf 200 cb 1012,9 hPa 0,0 mm 0,0 km/h (0 Bft) W-SW 239 ° 0 min 0 min 0,000 mm 0,0 UV-I 0 W/m² 7,8 °C 8,6 °C 0,0 km/h (0 Bft) 100 %
07.05.2026 03:30 8,7 °C 7,8 °C 8,7 °C 8,7 °C 13,3 °C 7,8 °C 95 % 90 % 14 lf 200 cb 1012,9 hPa 0,0 mm 0,0 km/h (0 Bft) W-SW 239 ° 0 min 0 min 0,000 mm 0,0 UV-I 0 W/m² 7,9 °C 8,7 °C 0,0 km/h (0 Bft) 99 %
07.05.2026 03:20 8,7 °C 8,3 °C 8,7 °C 8,7 °C 13,3 °C 7,2 °C 95 % 90 % 14 lf 200 cb 1012,7 hPa 0,0 mm 0,0 km/h (0 Bft) W-SW 239 ° 0 min 0 min 0,000 mm 0,0 UV-I 0 W/m² 7,9 °C 8,7 °C 0,0 km/h (0 Bft) 98 %
07.05.2026 03:10 8,7 °C 8,3 °C 8,7 °C 8,7 °C 13,3 °C 7,2 °C 95 % 90 % 14 lf 200 cb 1012,7 hPa 0,0 mm 0,0 km/h (0 Bft) W-SW 239 ° 0 min 0 min 0,000 mm 0,0 UV-I 0 W/m² 7,9 °C 8,7 °C 0,0 km/h (0 Bft) 97 %
07.05.2026 03:00 8,7 °C 8,3 °C 8,7 °C 8,7 °C 13,3 °C 7,8 °C 95 % 90 % 14 lf 200 cb 1012,7 hPa 0,0 mm 0,0 km/h (0 Bft) W-SW 239 ° 0 min 0 min 0,000 mm 0,0 UV-I 0 W/m² 7,9 °C 8,7 °C 0,0 km/h (0 Bft) 97 %
07.05.2026 02:50 8,7 °C 8,3 °C 8,7 °C 8,7 °C 13,3 °C 7,8 °C 95 % 90 % 14 lf 200 cb 1012,7 hPa 0,0 mm 0,0 km/h (0 Bft) W-SW 239 ° 0 min 0 min 0,000 mm 0,0 UV-I 0 W/m² 7,9 °C 8,7 °C 0,0 km/h (0 Bft) 98 %
07.05.2026 02:40 8,7 °C 8,3 °C 8,6 °C 8,7 °C 13,3 °C 7,8 °C 95 % 90 % 14 lf 200 cb 1012,7 hPa 0,0 mm 0,0 km/h (0 Bft) W-SW 239 ° 0 min 0 min 0,000 mm 0,0 UV-I 0 W/m² 7,9 °C 8,7 °C 0,0 km/h (0 Bft) 99 %
07.05.2026 02:30 8,7 °C 8,3 °C 8,6 °C 8,7 °C 13,3 °C 7,8 °C 95 % 90 % 14 lf 200 cb 1012,7 hPa 0,0 mm 0,0 km/h (0 Bft) W-SW 239 ° 0 min 0 min 0,000 mm 0,0 UV-I 0 W/m² 7,9 °C 8,7 °C 0,0 km/h (0 Bft) 99 %
07.05.2026 02:20 8,6 °C 7,8 °C 8,6 °C 8,6 °C 13,9 °C 7,8 °C 95 % 90 % 15 lf 200 cb 1012,7 hPa 0,0 mm 0,0 km/h (0 Bft) W-SW 239 ° 0 min 0 min 0,000 mm 0,0 UV-I 0 W/m² 7,8 °C 8,6 °C 0,0 km/h (0 Bft) 99 %
07.05.2026 02:10 8,6 °C 7,8 °C 8,5 °C 8,6 °C 13,9 °C 7,8 °C 95 % 90 % 15 lf 200 cb 1012,6 hPa 0,0 mm 0,0 km/h (0 Bft) W-SW 239 ° 0 min 0 min 0,000 mm 0,0 UV-I 0 W/m² 7,8 °C 8,6 °C 0,0 km/h (0 Bft) 100 %
07.05.2026 02:00 8,5 °C 7,8 °C 8,4 °C 8,5 °C 13,9 °C 7,8 °C 95 % 90 % 15 lf 200 cb 1012,7 hPa 0,0 mm 0,0 km/h (0 Bft) W-SW 239 ° 0 min 0 min 0,000 mm 0,0 UV-I 0 W/m² 7,7 °C 8,5 °C 0,0 km/h (0 Bft) 100 %
07.05.2026 01:50 8,4 °C 7,8 °C 8,4 °C 8,4 °C 13,9 °C 7,8 °C 95 % 90 % 15 lf 200 cb 1012,6 hPa 0,0 mm 0,0 km/h (0 Bft) W-SW 239 ° 0 min 0 min 0,000 mm 0,0 UV-I 0 W/m² 7,6 °C 8,4 °C 0,0 km/h (0 Bft) 100 %
07.05.2026 01:40 8,4 °C 7,8 °C 8,3 °C 8,4 °C 13,9 °C 7,8 °C 95 % 90 % 15 lf 200 cb 1012,7 hPa 0,0 mm 0,0 km/h (0 Bft) W-SW 239 ° 0 min 0 min 0,000 mm 0,0 UV-I 0 W/m² 7,6 °C 8,4 °C 0,0 km/h (0 Bft) 100 %
07.05.2026 01:30 8,3 °C 7,8 °C 8,2 °C 8,3 °C 13,9 °C 7,8 °C 95 % 90 % 15 lf 200 cb 1012,6 hPa 0,0 mm 0,0 km/h (0 Bft) W-SW 242 ° 0 min 0 min 0,000 mm 0,0 UV-I 0 W/m² 7,5 °C 8,3 °C 0,0 km/h (0 Bft) 97 %
07.05.2026 01:20 8,2 °C 7,8 °C 8,2 °C 8,3 °C 13,9 °C 7,8 °C 95 % 90 % 15 lf 200 cb 1012,5 hPa 0,0 mm 0,0 km/h (0 Bft) SW 232 ° 0 min 0 min 0,000 mm 0,0 UV-I 0 W/m² 7,4 °C 8,2 °C 0,0 km/h (0 Bft) 97 %
07.05.2026 01:10 8,2 °C 7,8 °C 8,1 °C 8,2 °C 13,9 °C 7,8 °C 94 % 90 % 15 lf 200 cb 1012,6 hPa 0,0 mm 0,0 km/h (0 Bft) SW 232 ° 0 min 0 min 0,000 mm 0,0 UV-I 0 W/m² 7,3 °C 8,2 °C 0,0 km/h (0 Bft) 96 %
07.05.2026 01:00 8,1 °C 7,8 °C 8,1 °C 8,1 °C 13,9 °C 7,8 °C 94 % 90 % 15 lf 200 cb 1012,5 hPa 0,0 mm 0,0 km/h (0 Bft) SW 232 ° 0 min 0 min 0,000 mm 0,0 UV-I 0 W/m² 7,2 °C 8,1 °C 0,0 km/h (0 Bft) 99 %
07.05.2026 00:50 8,1 °C 7,8 °C 8,1 °C 8,1 °C 13,9 °C 7,2 °C 94 % 90 % 15 lf 200 cb 1012,4 hPa 0,0 mm 0,0 km/h (0 Bft) SW 227 ° 0 min 0 min 0,000 mm 0,0 UV-I 0 W/m² 7,2 °C 8,1 °C 0,0 km/h (0 Bft) 100 %
07.05.2026 00:40 8,1 °C 7,8 °C 8,1 °C 8,2 °C 13,9 °C 7,2 °C 94 % 90 % 15 lf 200 cb 1012,3 hPa 0,0 mm 0,0 km/h (0 Bft) SW 227 ° 0 min 0 min 0,000 mm 0,0 UV-I 0 W/m² 7,2 °C 8,1 °C 0,0 km/h (0 Bft) 99 %
07.05.2026 00:30 8,2 °C 7,8 °C 8,2 °C 8,3 °C 13,9 °C 6,1 °C 94 % 90 % 15 lf 200 cb 1012,2 hPa 0,0 mm 0,0 km/h (0 Bft) SW 227 ° 0 min 0 min 0,000 mm 0,0 UV-I 0 W/m² 7,3 °C 8,2 °C 0,0 km/h (0 Bft) 99 %
07.05.2026 00:20 8,3 °C 7,8 °C 8,3 °C 8,4 °C 13,9 °C 6,1 °C 94 % 90 % 15 lf 200 cb 1012,2 hPa 0,0 mm 0,0 km/h (0 Bft) SW 227 ° 0 min 0 min 0,000 mm 0,0 UV-I 0 W/m² 7,4 °C 8,3 °C 0,0 km/h (0 Bft) 100 %
07.05.2026 00:10 8,3 °C 7,8 °C 8,3 °C 8,4 °C 13,9 °C 6,1 °C 94 % 90 % 15 lf 200 cb 1012,1 hPa 0,0 mm 0,0 km/h (0 Bft) N 0 ° 0 min 0 min 0,000 mm 0,0 UV-I 0 W/m² 7,4 °C 8,3 °C 0,0 km/h (0 Bft) 100 %
07.05.2026 00:00 8,4 °C 7,8 °C 8,4 °C 8,5 °C 13,9 °C 6,1 °C 94 % 90 % 15 lf 200 cb 1012,0 hPa 0,0 mm 0,0 km/h (0 Bft) N 0 ° 0 min 0 min 0,000 mm 0,0 UV-I 0 W/m² 7,5 °C 8,4 °C 0,0 km/h (0 Bft) 100 %
06.05.2026 23:50 8,5 °C 7,8 °C 8,5 °C 8,6 °C 13,9 °C 6,1 °C 94 % 90 % 15 lf 200 cb 1012,0 hPa 0,0 mm 0,0 km/h (0 Bft) SW 227 ° 0 min 0 min 0,000 mm 0,0 UV-I 0 W/m² 7,6 °C 8,5 °C 0,0 km/h (0 Bft) 99 %
06.05.2026 23:40 8,6 °C 8,3 °C 8,6 °C 8,7 °C 13,9 °C 6,7 °C 94 % 90 % 15 lf 200 cb 1012,0 hPa 0,0 mm 0,0 km/h (0 Bft) SW 227 ° 0 min 0 min 0,000 mm 0,0 UV-I 0 W/m² 7,7 °C 8,6 °C 0,0 km/h (0 Bft) 97 %
06.05.2026 23:30 8,7 °C 8,3 °C 8,7 °C 8,8 °C 13,9 °C 7,2 °C 94 % 90 % 15 lf 200 cb 1012,0 hPa 0,0 mm 0,0 km/h (0 Bft) SW 227 ° 0 min 0 min 0,000 mm 0,0 UV-I 0 W/m² 7,8 °C 8,7 °C 0,0 km/h (0 Bft) 96 %
06.05.2026 23:20 8,8 °C 8,3 °C 8,8 °C 8,9 °C 13,9 °C 7,2 °C 94 % 90 % 15 lf 200 cb 1012,1 hPa 0,0 mm 0,0 km/h (0 Bft) SW 227 ° 0 min 0 min 0,000 mm 0,0 UV-I 0 W/m² 7,9 °C 8,8 °C 0,0 km/h (0 Bft) 98 %
06.05.2026 23:10 8,9 °C 8,3 °C 8,9 °C 8,9 °C 13,9 °C 7,2 °C 94 % 90 % 15 lf 200 cb 1012,0 hPa 0,0 mm 0,0 km/h (0 Bft) SW 227 ° 0 min 0 min 0,000 mm 0,0 UV-I 0 W/m² 8,0 °C 8,9 °C 0,0 km/h (0 Bft) 99 %
06.05.2026 23:00 8,9 °C 8,3 °C 8,9 °C 9,1 °C 13,9 °C 7,2 °C 94 % 90 % 15 lf 200 cb 1011,9 hPa 0,0 mm 0,0 km/h (0 Bft) SW 227 ° 0 min 0 min 0,000 mm 0,0 UV-I 0 W/m² 8,0 °C 8,9 °C 0,0 km/h (0 Bft) 99 %
06.05.2026 22:50 9,1 °C 8,9 °C 9,1 °C 9,1 °C 13,9 °C 7,8 °C 94 % 90 % 15 lf 200 cb 1011,9 hPa 0,2 mm 0,0 km/h (0 Bft) SW 226 ° 0 min 10 min 0,000 mm 0,0 UV-I 0 W/m² 8,2 °C 9,1 °C 0,0 km/h (0 Bft) 100 %
06.05.2026 22:40 9,1 °C 8,9 °C 9,1 °C 9,2 °C 13,9 °C 7,8 °C 94 % 90 % 15 lf 200 cb 1011,9 hPa 0,0 mm 0,0 km/h (0 Bft) SW 226 ° 0 min 0 min 0,000 mm 0,0 UV-I 0 W/m² 8,2 °C 9,1 °C 0,0 km/h (0 Bft) 100 %
06.05.2026 22:30 9,2 °C 8,9 °C 9,1 °C 9,2 °C 13,9 °C 8,3 °C 94 % 90 % 15 lf 200 cb 1011,8 hPa 0,0 mm 0,0 km/h (0 Bft) SW 226 ° 0 min 0 min 0,000 mm 0,0 UV-I 0 W/m² 8,3 °C 9,2 °C 0,0 km/h (0 Bft) 100 %
06.05.2026 22:20 9,2 °C 8,9 °C 9,2 °C 9,2 °C 13,9 °C 8,3 °C 94 % 90 % 15 lf 200 cb 1011,9 hPa 0,0 mm 0,0 km/h (0 Bft) SW 228 ° 0 min 0 min 0,000 mm 0,0 UV-I 0 W/m² 8,3 °C 9,2 °C 0,0 km/h (0 Bft) 100 %
06.05.2026 22:10 9,2 °C 8,9 °C 9,2 °C 9,2 °C 13,9 °C 8,3 °C 94 % 90 % 15 lf 200 cb 1011,9 hPa 0,0 mm 0,0 km/h (0 Bft) N 0 ° 0 min 0 min 0,000 mm 0,0 UV-I 0 W/m² 8,3 °C 9,2 °C 0,0 km/h (0 Bft) 100 %
06.05.2026 22:00 9,2 °C 8,9 °C 9,2 °C 9,2 °C 13,9 °C 8,3 °C 94 % 90 % 15 lf 200 cb 1011,8 hPa 0,0 mm 0,0 km/h (0 Bft) SW 225 ° 0 min 0 min 0,000 mm 0,0 UV-I 0 W/m² 8,3 °C 9,2 °C 2,1 km/h (1 Bft) 100 %
06.05.2026 21:50 9,2 °C 8,9 °C 9,2 °C 9,2 °C 13,9 °C 8,3 °C 94 % 90 % 15 lf 200 cb 1011,6 hPa 0,0 mm 0,2 km/h (0 Bft) SW 234 ° 0 min 0 min 0,000 mm 0,0 UV-I 0 W/m² 8,3 °C 9,2 °C 4,1 km/h (1 Bft) 96 %
06.05.2026 21:40 9,2 °C 8,9 °C 9,2 °C 9,2 °C 13,9 °C 8,3 °C 94 % 90 % 15 lf 200 cb 1011,5 hPa 0,0 mm 0,0 km/h (0 Bft) SW 233 ° 0 min 0 min 0,000 mm 0,0 UV-I 0 W/m² 8,3 °C 9,2 °C 0,0 km/h (0 Bft) 94 %
06.05.2026 21:30 9,2 °C 8,9 °C 9,2 °C 9,3 °C 13,9 °C 8,9 °C 95 % 90 % 15 lf 200 cb 1011,4 hPa 0,0 mm 0,0 km/h (0 Bft) SW 234 ° 0 min 0 min 0,000 mm 0,0 UV-I 0 W/m² 8,4 °C 9,2 °C 0,0 km/h (0 Bft) 96 %
06.05.2026 21:20 9,3 °C 8,9 °C 9,2 °C 9,3 °C 13,9 °C 8,9 °C 95 % 90 % 15 lf 200 cb 1011,2 hPa 0,0 mm 0,0 km/h (0 Bft) N 0 ° 0 min 0 min 0,000 mm 0,0 UV-I 0 W/m² 8,5 °C 9,3 °C 0,0 km/h (0 Bft) 97 %
06.05.2026 21:10 9,3 °C 8,9 °C 9,3 °C 9,3 °C 13,9 °C 8,9 °C 95 % 90 % 15 lf 200 cb 1011,1 hPa 0,0 mm 0,0 km/h (0 Bft) W-SW 238 ° 0 min 0 min 0,000 mm 0,0 UV-I 0 W/m² 8,5 °C 9,3 °C 0,0 km/h (0 Bft) 97 %
06.05.2026 21:00 9,3 °C 8,9 °C 9,3 °C 9,3 °C 13,9 °C 8,9 °C 95 % 90 % 15 lf 200 cb 1011,1 hPa 0,0 mm 0,0 km/h (0 Bft) W-SW 237 ° 0 min 0 min 0,000 mm 0,0 UV-I 0 W/m² 8,5 °C 9,3 °C 0,0 km/h (0 Bft) 97 %
06.05.2026 20:50 9,3 °C 8,9 °C 9,3 °C 9,3 °C 13,9 °C 8,9 °C 95 % 90 % 15 lf 200 cb 1011,0 hPa 0,0 mm 0,0 km/h (0 Bft) W-SW 238 ° 0 min 0 min 0,000 mm 0,0 UV-I 0 W/m² 8,5 °C 9,3 °C 0,0 km/h (0 Bft) 98 %
06.05.2026 20:40 9,3 °C 9,4 °C 9,3 °C 9,3 °C 13,9 °C 8,9 °C 95 % 90 % 15 lf 200 cb 1010,9 hPa 0,0 mm 0,2 km/h (0 Bft) W-SW 238 ° 0 min 0 min 0,000 mm 0,0 UV-I 3 W/m² 8,5 °C 9,3 °C 4,1 km/h (1 Bft) 97 %
06.05.2026 20:30 9,3 °C 9,4 °C 9,3 °C 9,3 °C 13,9 °C 8,9 °C 95 % 90 % 15 lf 200 cb 1010,9 hPa 0,0 mm 0,0 km/h (0 Bft) W-SW 239 ° 0 min 0 min 0,000 mm 0,0 UV-I 0 W/m² 8,5 °C 9,3 °C 0,0 km/h (0 Bft) 98 %
06.05.2026 20:20 9,3 °C 9,4 °C 9,3 °C 9,3 °C 13,9 °C 8,9 °C 95 % 90 % 15 lf 200 cb 1010,7 hPa 0,0 mm 0,0 km/h (0 Bft) W-SW 238 ° 0 min 0 min 0,000 mm 0,0 UV-I 0 W/m² 8,5 °C 9,3 °C 0,0 km/h (0 Bft) 96 %
06.05.2026 20:10 9,3 °C 9,4 °C 9,3 °C 9,3 °C 13,9 °C 9,4 °C 95 % 90 % 15 lf 200 cb 1010,6 hPa 0,0 mm 0,1 km/h (0 Bft) SW 236 ° 0 min 0 min 0,000 mm 0,0 UV-I 3 W/m² 8,5 °C 9,3 °C 4,1 km/h (1 Bft) 95 %
06.05.2026 20:00 9,3 °C 8,9 °C 9,3 °C 9,3 °C 13,9 °C 9,4 °C 95 % 90 % 15 lf 200 cb 1010,4 hPa 0,0 mm 0,1 km/h (0 Bft) SW 233 ° 0 min 0 min 0,000 mm 0,0 UV-I 10 W/m² 8,5 °C 9,3 °C 2,1 km/h (1 Bft) 96 %
_ Min-Zeit 07:00 07:10 07:00 07:10 02:30 23:50 13:40 14:10 06:10 20:00 20:00 - 20:20 - - - - - - - 13:40 07:00 20:20 18:30
Minimum _ 7,9 °C 7,2 °C 7,9 °C 7,9 °C 13,3 °C 6,1 °C 45 % 46 % 0 lf 200 cb 1010,4 hPa - 0,0 km/h (0 Bft) - - - - - - - 5,2 °C 7,9 °C 0,0 km/h (0 Bft) 93 %
_ Max-Zeit 13:00 14:10 13:50 13:00 20:00 13:50 20:00 04:40 20:00 20:00 12:30 22:50 12:20 - - 09:10 22:50 14:00 13:20 13:30 10:50 13:20 12:20 22:00
Maximum _ 17,6 °C 18,3 °C 17,1 °C 17,6 °C 13,9 °C 35,0 °C 95 % 91 % 15 lf 200 cb 1016,2 hPa 0,2 mm 2,9 km/h
W (1 Bft)
- - 10 min 10 min 0,482 mm 3,0 UV-I 830 W/m² 10,4 °C 17,6 °C 12,4 km/h
W (3 Bft)
100 %
Durchschnitt _ 11,4 °C 10,9 °C 11,3 °C 11,5 °C 13,5 °C 15,3 °C 81 % 80 % 6 lf 200 cb 1013,9 hPa #0,6 mm 0,3 km/h (0 Bft) W - #5:00 h #20 min. #2,337 mm 1,6 UV-I 312 W/m² 7,8 °C 11,4 °C 2,3 km/h (1 Bft) 98 %